Ivins, UT (84738)

7:40 PM MDT on July 03, 2015 (GMT -0600)
400 S Puerto Drive | | Change Station
CLOSE
Current Station
Personal Weather Station
Location: Ivins, UT
Elevation: 3000 ft
Nearby Weather Stations

Elev 3000 ft 37.16 °N, 113.67 °W | Updated 4 seconds ago

Partly Cloudy
Partly Cloudy
92.5 °F
Feels Like 93 °F
N
2.0
Wind Variable Wind from East
Gusts 3.0 mph

Today
High -- | Low -- °F
--% Chance of Precip.
Yesterday
High -- | Low -- °F
Precip. -- in
6:19 AM 8:58 PM
Waning Gibbous, 95% visible
Pressure 29.84 in
Visibility 10.0 miles
Clouds Clear
Heat Index 93 °F
Dew Point 62 °F
Humidity 36%
Rainfall 0.02 in
Snow Depth Not available.
UV 1 out of 12
Pollen 5.00 out of 12
Air Quality Not available.
Flu Activity Not available.
METAR KSGU 040135Z AUTO 12008KT 10SM CLR 34/13 A2984 RMK AO1

More Conditions Fewer Conditions

Pressure 29.84 in
Visibility 10.0 miles
Clouds Clear
Heat Index 93 °F
Dew Point 62 °F
Humidity 36%
Rainfall 0.02 in
Snow Depth Not available.
UV 1 out of 12
Pollen 5.00 out of 12
Air Quality Not available.
Flu Activity Not available.
METAR KSGU 040135Z AUTO 12008KT 10SM CLR 34/13 A2984 RMK AO1

More Conditions Fewer Conditions

10-Day Weather Forecast

×

Almanac

Astronomy

Jul. 03, 2015 Rise Set
Actual Time
Civil Twilight
Nautical Twilight
Astronomical Twilight
Moon
Length of Visible Light
Length of Day
Tomorrow will be .
, % of the Moon is Illuminated

Today's Extremes

State Highs State Lows

Community

WunderPhotos

Upload Photos

1,834,865 photos uploaded!

WunderBlogs® & News

Nearby

Air Quality

  Air Quality AQ Index Pollutant
Not available.

Snow Depth

Station Depth Elevation

Earthquake Activity

City Distance Mag. Time & Date
Minimum magnitude displayed is 2.5.

Coastal Water Temperatures

Place Temperature

Stations

Nearby Weather Stations

Station Location Temp. Windchill Dew Point Humidity Wind Precip. Elev Updated Type